Time;durP1;ratioP1;P1;durP2;ratioP2;P2;SDS_P1;SDS_P2;PMS_P1;PMS_P2;Temp;Humidity;BMP_temperature;BMP_pressure;BME280_temperature;BME280_humidity;BME280_pressure;Samples;Min_cycle;Max_cycle;Signal;HPM_P1;HPM_P2
2023/01/19 00:01:30;;;;;;;16.02;8.38;;;3.50;91.20;;;;;;5030225;28;20022;-65
2023/01/19 00:03:56;;;;;;;15.38;9.18;;;3.40;91.30;;;;;;5025661;28;20032;-66
2023/01/19 00:06:21;;;;;;;11.80;7.07;;;3.40;91.30;;;;;;5031059;28;20053;-65
2023/01/19 00:08:49;;;;;;;10.48;6.25;;;3.50;91.40;;;;;;5027234;28;20712;-65
2023/01/19 00:11:18;;;;;;;20.88;10.20;;;3.50;91.40;;;;;;5031268;28;20032;-66
2023/01/19 00:13:50;;;;;;;15.70;8.73;;;3.50;91.40;;;;;;5030943;28;20105;-66
2023/01/19 00:16:17;;;;;;;12.35;7.63;;;3.50;91.50;;;;;;5030560;28;20037;-65
2023/01/19 00:18:44;;;;;;;16.50;8.93;;;3.50;91.50;;;;;;5032033;28;20031;-67
2023/01/19 00:21:10;;;;;;;12.15;7.10;;;3.60;91.50;;;;;;5030815;28;20028;-66
2023/01/19 00:23:35;;;;;;;13.73;7.55;;;3.60;91.50;;;;;;5031201;28;20021;-66
2023/01/19 00:26:01;;;;;;;12.80;7.47;;;3.60;91.50;;;;;;5033398;28;20037;-67
2023/01/19 00:28:26;;;;;;;11.45;6.68;;;3.60;91.50;;;;;;5028283;28;20032;-66
2023/01/19 00:30:52;;;;;;;15.45;8.25;;;3.60;91.50;;;;;;5029824;28;20033;-66
2023/01/19 00:33:17;;;;;;;15.70;8.20;;;3.60;91.60;;;;;;5031688;28;20079;-66
2023/01/19 00:35:43;;;;;;;14.82;9.00;;;3.60;91.60;;;;;;5031971;28;20067;-66
2023/01/19 00:38:10;;;;;;;13.50;8.02;;;3.50;91.60;;;;;;5030090;28;20097;-65
2023/01/19 00:40:36;;;;;;;14.85;9.27;;;3.50;91.70;;;;;;5030801;28;20021;-65
2023/01/19 00:43:02;;;;;;;16.20;9.02;;;3.50;91.70;;;;;;5032060;28;20029;-66
2023/01/19 00:45:28;;;;;;;12.40;7.38;;;3.50;91.80;;;;;;5033194;28;20028;-66
2023/01/19 00:47:55;;;;;;;13.15;6.72;;;3.50;92.10;;;;;;5032663;28;20104;-65
2023/01/19 00:50:23;;;;;;;13.98;7.90;;;3.50;91.80;;;;;;5032795;28;20025;-65
2023/01/19 00:52:49;;;;;;;20.35;11.07;;;3.60;91.90;;;;;;5031766;28;20034;-66
2023/01/19 00:55:15;;;;;;;15.00;8.77;;;3.50;91.90;;;;;;5029046;28;20029;-66
2023/01/19 00:57:42;;;;;;;18.05;9.13;;;3.50;92.00;;;;;;5045426;28;20058;-67
2023/01/19 01:00:11;;;;;;;11.65;7.45;;;3.50;91.90;;;;;;5031118;28;20028;-66
2023/01/19 01:02:38;;;;;;;14.65;8.13;;;3.60;92.00;;;;;;5031158;28;20476;-67
2023/01/19 01:05:05;;;;;;;15.20;8.90;;;3.60;92.00;;;;;;5025397;28;20093;-67
2023/01/19 01:07:40;;;;;;;17.25;8.50;;;3.50;92.00;;;;;;5029747;28;20515;-66
2023/01/19 01:10:15;;;;;;;15.82;8.38;;;3.60;92.00;;;;;;5028233;28;20021;-66
2023/01/19 01:12:41;;;;;;;11.85;7.10;;;3.60;92.00;;;;;;5029122;28;20033;-66
2023/01/19 01:15:09;;;;;;;16.02;8.68;;;3.60;92.00;;;;;;5029709;28;20033;-65
2023/01/19 01:17:35;;;;;;;13.38;8.57;;;3.60;92.00;;;;;;5030958;28;20040;-65
2023/01/19 01:20:03;;;;;;;18.17;8.88;;;3.50;92.00;;;;;;5030549;28;20410;-66
2023/01/19 01:22:29;;;;;;;15.95;8.98;;;3.60;92.00;;;;;;5029766;28;20383;-67
2023/01/19 01:24:54;;;;;;;12.18;7.22;;;3.60;92.00;;;;;;5030104;28;20026;-66
2023/01/19 01:27:20;;;;;;;13.23;7.50;;;3.60;92.00;;;;;;5029692;28;20052;-66
2023/01/19 01:29:48;;;;;;;12.75;7.75;;;3.60;92.00;;;;;;5030279;28;20099;-67
2023/01/19 01:32:15;;;;;;;10.50;6.43;;;3.60;92.00;;;;;;5029384;28;20029;-65
2023/01/19 01:34:41;;;;;;;15.93;8.50;;;3.60;92.10;;;;;;5027752;28;21605;-67
2023/01/19 01:37:07;;;;;;;16.20;9.52;;;3.60;92.10;;;;;;5032923;28;20438;-65
2023/01/19 01:39:36;;;;;;;12.10;7.18;;;3.50;92.20;;;;;;5028935;28;20022;-66
2023/01/19 01:42:04;;;;;;;10.25;6.22;;;3.60;92.20;;;;;;5026483;28;20071;-65
2023/01/19 01:44:49;;;;;;;10.85;7.07;;;3.60;92.20;;;;;;5027143;28;20029;-65
2023/01/19 01:47:36;;;;;;;12.75;6.05;;;3.60;92.40;;;;;;5031227;28;20503;-66
2023/01/19 01:50:31;;;;;;;10.70;6.10;;;3.60;92.20;;;;;;5030563;28;20428;-64
2023/01/19 01:53:12;;;;;;;12.82;7.00;;;3.60;92.20;;;;;;5027842;28;20040;-66
2023/01/19 01:55:47;;;;;;;13.52;6.32;;;3.50;92.30;;;;;;5025335;28;20044;-67
2023/01/19 01:58:14;;;;;;;10.05;5.85;;;3.50;92.40;;;;;;5027933;28;20499;-67
2023/01/19 02:03:25;;;;;;;13.32;7.20;;;3.40;92.40;;;;;;5029283;28;20036;-66
2023/01/19 02:05:56;;;;;;;10.45;6.32;;;3.40;92.40;;;;;;5030165;28;20029;-66
2023/01/19 02:14:06;;;;;;;13.13;7.25;;;3.20;92.40;;;;;;5032374;28;20056;-67
2023/01/19 02:16:33;;;;;;;11.98;7.00;;;3.20;92.50;;;;;;5030808;28;20480;-67
2023/01/19 02:19:00;;;;;;;14.70;7.53;;;3.10;92.50;;;;;;5029212;28;20025;-67
2023/01/19 02:22:00;;;;;;;11.65;7.07;;;3.10;92.60;;;;;;5029852;28;20022;-66
2023/01/19 02:24:27;;;;;;;13.02;7.28;;;3.10;92.60;;;;;;5027779;28;20048;-68
2023/01/19 02:26:53;;;;;;;10.90;6.75;;;3.10;92.60;;;;;;5029437;28;20401;-67
2023/01/19 02:29:21;;;;;;;11.10;7.35;;;3.00;92.60;;;;;;5027182;28;20025;-67
2023/01/19 02:31:47;;;;;;;11.05;6.63;;;3.00;92.60;;;;;;5028304;28;20025;-67
2023/01/19 02:34:19;;;;;;;12.32;6.75;;;2.90;92.80;;;;;;5028893;28;20091;-68
2023/01/19 02:36:52;;;;;;;9.93;6.30;;;2.90;92.60;;;;;;5028560;28;20715;-68
2023/01/19 02:39:24;;;;;;;10.63;6.55;;;2.90;92.60;;;;;;5029270;28;20534;-68
2023/01/19 02:41:54;;;;;;;10.13;6.00;;;2.80;92.60;;;;;;5028737;28;20112;-68
2023/01/19 02:44:22;;;;;;;10.45;6.40;;;2.70;92.60;;;;;;5027098;28;20048;-67
2023/01/19 02:46:48;;;;;;;9.32;6.15;;;2.70;92.70;;;;;;5025520;28;20030;-68
2023/01/19 02:49:13;;;;;;;10.15;6.20;;;2.70;92.80;;;;;;5026961;28;20163;-68
2023/01/19 02:51:42;;;;;;;12.38;7.45;;;2.70;92.80;;;;;;5029723;28;20060;-68
2023/01/19 02:54:37;;;;;;;10.63;6.72;;;2.70;92.80;;;;;;5026646;28;20102;-67
2023/01/19 02:57:24;;;;;;;10.63;6.50;;;2.60;92.90;;;;;;5021743;28;20045;-67
2023/01/19 02:59:53;;;;;;;8.43;5.15;;;2.70;92.90;;;;;;5029131;28;20502;-68
2023/01/19 03:02:29;;;;;;;10.23;6.28;;;2.70;92.90;;;;;;5028348;28;20026;-66
2023/01/19 03:05:01;;;;;;;8.13;5.28;;;2.70;92.80;;;;;;5018815;28;20101;-66
2023/01/19 03:07:53;;;;;;;8.13;4.72;;;2.70;92.80;;;;;;5020877;28;20048;-67
2023/01/19 03:10:42;;;;;;;7.82;4.97;;;2.70;92.80;;;;;;5029363;28;20033;-67
2023/01/19 03:13:10;;;;;;;7.03;4.68;;;2.70;92.80;;;;;;5028062;28;20041;-68
2023/01/19 03:15:49;;;;;;;5.60;4.03;;;2.70;92.90;;;;;;5028596;28;20184;-67
2023/01/19 03:18:20;;;;;;;5.25;3.80;;;2.70;92.90;;;;;;5028841;28;20030;-66
2023/01/19 03:20:49;;;;;;;5.20;3.80;;;2.70;92.90;;;;;;5028641;28;20025;-67
2023/01/19 03:23:15;;;;;;;3.90;2.88;;;2.70;92.90;;;;;;5032866;28;20021;-67
2023/01/19 03:25:44;;;;;;;4.88;3.42;;;2.80;93.00;;;;;;5032144;28;20100;-67
2023/01/19 03:28:12;;;;;;;5.13;3.20;;;2.80;92.90;;;;;;5030950;28;20483;-67
2023/01/19 03:30:41;;;;;;;6.07;3.20;;;2.80;92.90;;;;;;5032475;28;20151;-66
2023/01/19 03:33:11;;;;;;;3.30;2.40;;;2.80;92.80;;;;;;5028339;28;20033;-68
2023/01/19 03:35:42;;;;;;;3.80;2.47;;;2.80;92.80;;;;;;5032482;28;20109;-67
2023/01/19 03:38:14;;;;;;;3.53;2.55;;;2.90;92.80;;;;;;5032406;28;20112;-67
2023/01/19 03:40:40;;;;;;;2.53;2.10;;;2.90;92.80;;;;;;5032604;28;20415;-67
2023/01/19 03:43:07;;;;;;;2.63;2.03;;;2.90;92.70;;;;;;5032878;28;20017;-68
2023/01/19 03:45:37;;;;;;;2.20;1.80;;;2.90;92.70;;;;;;5032887;28;20078;-68
2023/01/19 03:48:04;;;;;;;3.17;2.30;;;2.90;92.70;;;;;;5031218;28;20116;-67
2023/01/19 03:50:30;;;;;;;3.50;2.25;;;3.00;92.70;;;;;;5032058;28;20021;-68
2023/01/19 03:53:16;;;;;;;2.50;1.70;;;3.00;92.70;;;;;;5031371;28;20099;-69
2023/01/19 03:55:45;;;;;;;1.90;1.70;;;3.00;92.70;;;;;;5035992;28;20026;-68
2023/01/19 03:58:11;;;;;;;3.70;1.65;;;3.10;92.70;;;;;;5038240;28;20025;-68
2023/01/19 04:00:37;;;;;;;1.50;1.40;;;3.20;92.70;;;;;;5035552;28;20079;-67
2023/01/19 04:03:04;;;;;;;3.60;1.52;;;3.20;92.60;;;;;;5032829;28;20053;-68
2023/01/19 04:05:30;;;;;;;1.85;1.20;;;3.20;92.50;;;;;;5031545;28;20025;-68
2023/01/19 04:07:56;;;;;;;3.05;1.50;;;3.20;92.50;;;;;;5032398;28;20031;-68
2023/01/19 04:10:22;;;;;;;1.25;1.10;;;3.30;92.50;;;;;;5031934;28;20033;-67
2023/01/19 04:12:47;;;;;;;3.60;1.20;;;3.30;92.50;;;;;;5031233;28;20395;-68
2023/01/19 04:15:14;;;;;;;1.15;1.00;;;3.40;92.80;;;;;;5031799;28;20025;-67
2023/01/19 04:17:40;;;;;;;2.75;0.80;;;3.40;92.40;;;;;;5027041;28;20033;-68
2023/01/19 04:20:07;;;;;;;3.72;1.00;;;3.50;92.40;;;;;;5028551;28;20021;-67
2023/01/19 04:22:33;;;;;;;2.85;0.90;;;3.50;92.40;;;;;;5031779;28;20139;-68
2023/01/19 04:24:58;;;;;;;1.90;0.82;;;3.50;92.40;;;;;;5031792;28;20700;-68
2023/01/19 04:27:24;;;;;;;2.20;0.80;;;3.50;92.40;;;;;;5031763;28;20108;-67
2023/01/19 04:29:50;;;;;;;1.15;0.90;;;3.60;92.40;;;;;;5032101;28;20369;-68
2023/01/19 04:32:16;;;;;;;4.20;1.20;;;3.60;92.40;;;;;;5030375;28;20040;-67
2023/01/19 04:34:42;;;;;;;1.00;0.90;;;3.60;92.40;;;;;;5031174;28;20037;-67
2023/01/19 04:37:08;;;;;;;1.00;0.90;;;3.60;92.40;;;;;;5030389;28;20086;-67
2023/01/19 04:39:34;;;;;;;1.30;1.20;;;3.50;92.30;;;;;;5029931;28;20025;-66
2023/01/19 04:41:59;;;;;;;1.42;1.10;;;3.50;92.30;;;;;;5031093;28;20075;-66
2023/01/19 04:44:26;;;;;;;1.52;0.85;;;3.50;92.40;;;;;;5030899;28;20045;-67
2023/01/19 04:46:51;;;;;;;1.52;1.30;;;3.40;92.40;;;;;;5031037;28;20118;-67
2023/01/19 04:49:17;;;;;;;1.98;0.90;;;3.40;92.50;;;;;;5031579;28;20500;-67
2023/01/19 04:51:43;;;;;;;2.67;1.00;;;3.30;92.50;;;;;;5026927;28;20030;-67
2023/01/19 04:54:09;;;;;;;3.20;1.25;;;3.30;92.50;;;;;;5030699;28;20381;-67
2023/01/19 04:56:35;;;;;;;2.22;1.05;;;3.30;92.60;;;;;;5031099;28;20040;-67
2023/01/19 04:59:00;;;;;;;2.20;0.80;;;3.30;92.60;;;;;;5031137;28;20030;-67
2023/01/19 05:01:26;;;;;;;3.45;0.98;;;3.20;92.60;;;;;;5028617;28;20024;-66
2023/01/19 05:03:52;;;;;;;1.55;1.02;;;3.20;92.60;;;;;;5028875;28;20056;-68
2023/01/19 05:06:17;;;;;;;1.73;1.00;;;3.20;92.60;;;;;;5027294;28;20310;-67
2023/01/19 05:08:43;;;;;;;1.40;1.30;;;3.30;92.60;;;;;;5027631;28;20056;-66
2023/01/19 05:11:08;;;;;;;1.20;1.10;;;3.20;92.60;;;;;;5026456;28;20022;-67
2023/01/19 05:13:34;;;;;;;1.30;1.05;;;3.30;92.60;;;;;;5030376;28;20030;-66
2023/01/19 05:16:00;;;;;;;2.25;1.60;;;3.20;92.60;;;;;;5030641;28;20514;-66
2023/01/19 05:18:26;;;;;;;2.75;1.38;;;3.30;92.60;;;;;;5027691;28;20036;-67
2023/01/19 05:20:51;;;;;;;2.92;1.20;;;3.30;92.50;;;;;;5030334;28;20021;-68
2023/01/19 05:23:17;;;;;;;1.33;1.10;;;3.30;92.60;;;;;;5030474;28;20662;-67
2023/01/19 05:25:43;;;;;;;2.58;1.38;;;3.30;92.60;;;;;;5029107;28;20091;-65
2023/01/19 05:28:09;;;;;;;3.08;1.08;;;3.30;92.50;;;;;;5032637;28;20126;-65
2023/01/19 05:30:35;;;;;;;2.33;1.02;;;3.30;92.50;;;;;;5030877;28;20040;-66
2023/01/19 05:33:00;;;;;;;2.10;0.95;;;3.30;92.50;;;;;;5031199;28;20196;-67
2023/01/19 05:35:26;;;;;;;1.85;1.20;;;3.30;92.50;;;;;;5031405;28;20100;-67
2023/01/19 05:37:52;;;;;;;1.73;1.00;;;3.30;92.50;;;;;;5030678;28;20029;-67
2023/01/19 05:40:17;;;;;;;1.65;0.98;;;3.30;92.60;;;;;;5031565;28;20105;-67
2023/01/19 05:42:43;;;;;;;3.25;0.95;;;3.40;92.60;;;;;;5031234;28;20044;-65
2023/01/19 05:45:09;;;;;;;2.83;0.90;;;3.40;92.60;;;;;;5026915;28;20112;-67
2023/01/19 05:47:34;;;;;;;2.10;1.00;;;3.40;92.60;;;;;;5031340;28;20018;-68
2023/01/19 05:50:00;;;;;;;0.95;0.82;;;3.40;92.50;;;;;;5030972;28;20036;-67
2023/01/19 05:52:25;;;;;;;2.85;1.38;;;3.40;92.50;;;;;;5030668;28;20028;-67
2023/01/19 05:54:53;;;;;;;4.00;1.00;;;3.40;92.50;;;;;;5029447;28;20419;-67
2023/01/19 05:57:18;;;;;;;1.48;0.90;;;3.40;92.50;;;;;;5031039;28;20479;-67
2023/01/19 05:59:44;;;;;;;2.00;1.10;;;3.50;92.50;;;;;;5031796;28;20025;-66
2023/01/19 06:02:10;;;;;;;4.05;0.90;;;3.50;92.50;;;;;;5033152;28;20021;-64
2023/01/19 06:04:35;;;;;;;3.03;0.80;;;3.50;92.50;;;;;;5029540;28;20025;-67
2023/01/19 06:07:01;;;;;;;4.05;0.88;;;3.50;92.50;;;;;;5028695;28;20029;-67
2023/01/19 06:09:27;;;;;;;4.53;0.90;;;3.40;92.50;;;;;;5025645;28;20026;-67
2023/01/19 06:11:55;;;;;;;7.00;1.10;;;3.50;92.50;;;;;;5030023;28;20021;-68
2023/01/19 06:14:20;;;;;;;2.60;0.93;;;3.50;92.50;;;;;;5029500;28;20029;-66
2023/01/19 06:16:46;;;;;;;5.13;1.10;;;3.50;92.50;;;;;;5029756;28;20041;-66
2023/01/19 06:19:12;;;;;;;4.32;1.10;;;3.50;92.50;;;;;;5029538;28;20082;-67
2023/01/19 06:21:38;;;;;;;2.33;0.90;;;3.50;92.50;;;;;;5027617;28;20075;-68
2023/01/19 06:24:04;;;;;;;1.80;0.70;;;3.50;92.40;;;;;;5028393;28;20021;-66
2023/01/19 06:26:29;;;;;;;3.33;0.82;;;3.50;92.40;;;;;;5022994;28;20033;-66
2023/01/19 06:28:55;;;;;;;3.50;1.20;;;3.50;92.40;;;;;;5027886;28;20156;-65
2023/01/19 06:31:20;;;;;;;4.40;1.08;;;3.60;92.50;;;;;;5017907;28;20381;-66
2023/01/19 06:33:46;;;;;;;3.38;0.90;;;3.60;92.50;;;;;;5025787;28;20048;-67
2023/01/19 06:36:12;;;;;;;4.10;1.30;;;3.60;92.50;;;;;;5023896;28;20021;-66
2023/01/19 06:38:37;;;;;;;2.00;0.73;;;3.60;92.50;;;;;;5031575;28;20503;-66
2023/01/19 06:41:03;;;;;;;1.75;0.85;;;3.70;92.50;;;;;;5030873;28;20038;-67
2023/01/19 06:43:30;;;;;;;1.70;0.98;;;3.70;92.40;;;;;;5028262;28;20021;-67
2023/01/19 06:45:56;;;;;;;2.10;1.00;;;3.70;92.40;;;;;;5026716;28;20056;-67
2023/01/19 06:48:22;;;;;;;7.03;0.98;;;3.80;92.40;;;;;;5027604;28;20527;-66
2023/01/19 06:50:48;;;;;;;6.63;1.13;;;3.80;92.30;;;;;;5025659;28;20220;-67
2023/01/19 06:53:15;;;;;;;2.88;1.00;;;3.70;92.30;;;;;;5026931;28;20025;-67
2023/01/19 06:55:43;;;;;;;4.18;1.00;;;3.70;92.30;;;;;;5030597;28;20255;-67
2023/01/19 06:58:10;;;;;;;2.30;1.02;;;3.70;92.40;;;;;;5034838;28;20032;-67
2023/01/19 07:00:36;;;;;;;4.93;1.30;;;3.70;92.40;;;;;;5025109;28;20029;-66
2023/01/19 07:03:05;;;;;;;5.10;1.30;;;3.70;92.40;;;;;;5026750;28;20052;-66
2023/01/19 07:05:30;;;;;;;3.63;1.20;;;3.70;92.40;;;;;;5022825;28;20021;-67
2023/01/19 07:07:56;;;;;;;3.13;1.05;;;3.70;92.50;;;;;;5033317;28;20086;-66
2023/01/19 07:10:22;;;;;;;5.03;1.10;;;3.70;92.50;;;;;;5025572;28;20025;-66
2023/01/19 07:12:48;;;;;;;5.03;1.30;;;3.80;92.50;;;;;;5036155;28;20029;-66
2023/01/19 07:15:16;;;;;;;6.00;1.25;;;3.70;92.50;;;;;;5027634;28;20129;-65
2023/01/19 07:17:43;;;;;;;4.93;1.52;;;3.70;92.50;;;;;;5028642;28;20156;-66
2023/01/19 07:20:11;;;;;;;6.70;1.70;;;3.80;92.50;;;;;;5023442;28;20108;-65
2023/01/19 07:22:37;;;;;;;4.65;1.50;;;3.80;92.50;;;;;;5020868;28;20018;-67
2023/01/19 07:25:04;;;;;;;6.78;2.25;;;3.80;92.60;;;;;;5025780;28;20028;-66
2023/01/19 07:27:30;;;;;;;6.78;1.73;;;3.80;92.60;;;;;;5030219;28;20108;-66
2023/01/19 07:29:56;;;;;;;2.05;1.30;;;3.80;92.60;;;;;;5032912;28;20462;-66
2023/01/19 07:32:21;;;;;;;7.05;1.77;;;3.80;92.60;;;;;;5027551;28;20033;-66
2023/01/19 07:34:47;;;;;;;5.65;1.30;;;3.90;92.60;;;;;;5020890;28;20545;-66
2023/01/19 07:37:12;;;;;;;4.05;1.40;;;3.90;92.60;;;;;;5026174;28;20105;-66
2023/01/19 07:39:38;;;;;;;7.28;1.58;;;3.90;92.50;;;;;;5028373;28;20381;-64
2023/01/19 07:42:04;;;;;;;5.05;1.38;;;3.90;92.60;;;;;;5023225;28;20018;-66
2023/01/19 07:44:29;;;;;;;7.00;1.30;;;3.90;92.50;;;;;;5028797;28;20391;-65
2023/01/19 07:46:55;;;;;;;5.10;1.80;;;3.90;92.50;;;;;;5019299;28;20034;-65
2023/01/19 07:49:20;;;;;;;4.18;1.45;;;3.90;92.50;;;;;;5011230;28;20037;-67
2023/01/19 07:51:46;;;;;;;3.67;1.90;;;3.90;92.40;;;;;;5019085;28;20153;-67
2023/01/19 07:54:12;;;;;;;7.60;2.42;;;3.90;92.40;;;;;;5017914;28;20033;-68
2023/01/19 07:56:37;;;;;;;6.13;2.20;;;3.90;92.40;;;;;;5014779;28;20075;-67
2023/01/19 07:59:03;;;;;;;5.85;2.25;;;3.90;92.40;;;;;;5019965;28;20030;-67
2023/01/19 08:01:28;;;;;;;4.15;2.42;;;3.80;92.50;;;;;;5023429;28;20029;-68
2023/01/19 08:03:54;;;;;;;5.32;2.53;;;3.80;92.60;;;;;;5029423;28;20030;-67
2023/01/19 08:06:23;;;;;;;5.85;1.77;;;3.90;92.60;;;;;;5028764;28;20096;-67
2023/01/19 08:08:49;;;;;;;6.63;2.17;;;3.90;92.60;;;;;;5026019;28;20030;-66
2023/01/19 08:11:15;;;;;;;7.07;2.00;;;3.80;92.40;;;;;;5039130;28;20021;-67
2023/01/19 08:13:42;;;;;;;4.80;2.60;;;3.80;92.40;;;;;;5027770;28;20038;-66
2023/01/19 08:16:07;;;;;;;6.32;2.50;;;3.90;92.50;;;;;;5024923;28;20025;-67
2023/01/19 08:18:33;;;;;;;5.28;2.20;;;3.90;92.50;;;;;;5026572;28;20446;-67
2023/01/19 08:20:59;;;;;;;6.70;2.33;;;3.80;92.50;;;;;;5021925;28;20049;-67
2023/01/19 08:23:24;;;;;;;7.07;2.58;;;3.80;92.40;;;;;;5029841;28;20018;-66
2023/01/19 08:25:50;;;;;;;5.35;2.33;;;3.80;92.40;;;;;;5028134;28;20448;-68
2023/01/19 08:28:16;;;;;;;2.88;1.70;;;3.80;92.40;;;;;;5028503;28;20053;-68
2023/01/19 08:30:43;;;;;;;5.20;2.40;;;3.90;92.50;;;;;;5030565;28;20345;-68
2023/01/19 08:33:10;;;;;;;6.15;2.33;;;3.80;92.50;;;;;;5027349;28;20037;-67
2023/01/19 08:35:38;;;;;;;7.75;2.47;;;3.80;92.50;;;;;;5034528;28;20037;-68
2023/01/19 08:38:04;;;;;;;8.30;2.45;;;3.90;92.50;;;;;;5024348;28;20022;-68
2023/01/19 08:40:33;;;;;;;9.07;2.50;;;3.80;92.50;;;;;;5029517;28;20040;-68
2023/01/19 08:43:07;;;;;;;5.95;2.53;;;3.80;92.50;;;;;;5026603;28;20026;-66
2023/01/19 08:45:40;;;;;;;3.60;2.28;;;3.90;92.50;;;;;;5027676;28;20505;-67
2023/01/19 08:48:06;;;;;;;6.95;2.72;;;3.80;92.40;;;;;;5025743;28;20737;-67
2023/01/19 08:50:33;;;;;;;4.28;2.40;;;3.80;92.40;;;;;;5022117;28;20065;-67
2023/01/19 08:53:00;;;;;;;5.75;2.55;;;3.80;92.50;;;;;;5026938;28;20032;-68
2023/01/19 08:55:27;;;;;;;7.28;2.55;;;3.80;92.50;;;;;;5031252;28;20120;-67
2023/01/19 08:57:55;;;;;;;5.82;2.20;;;3.90;92.50;;;;;;5027127;28;20033;-67
2023/01/19 09:00:22;;;;;;;10.05;2.88;;;3.90;92.50;;;;;;5031788;28;20633;-67
2023/01/19 09:02:48;;;;;;;5.88;2.70;;;3.90;92.50;;;;;;5015645;28;20030;-67
2023/01/19 09:05:14;;;;;;;6.13;2.75;;;3.90;92.50;;;;;;5033731;28;20072;-67
2023/01/19 09:07:40;;;;;;;8.00;2.63;;;4.00;92.40;;;;;;5024354;28;20017;-66
2023/01/19 09:10:07;;;;;;;7.78;2.50;;;4.00;92.40;;;;;;5017307;28;20485;-68
2023/01/19 09:12:32;;;;;;;9.63;2.55;;;4.00;92.30;;;;;;5023157;28;20030;-67
2023/01/19 09:14:58;;;;;;;4.97;2.08;;;4.10;92.30;;;;;;5021696;28;20120;-67
2023/01/19 09:17:24;;;;;;;7.25;2.65;;;4.10;92.30;;;;;;5021434;28;20083;-67
2023/01/19 09:19:49;;;;;;;3.80;2.10;;;4.10;92.30;;;;;;5023714;28;20104;-67
2023/01/19 09:22:15;;;;;;;6.50;3.10;;;4.20;92.30;;;;;;5023524;28;20383;-67
2023/01/19 09:24:40;;;;;;;7.15;2.90;;;4.20;92.20;;;;;;5026434;28;20496;-67
2023/01/19 09:27:06;;;;;;;6.65;2.80;;;4.20;92.20;;;;;;5038775;28;20033;-67
2023/01/19 09:29:32;;;;;;;6.95;2.90;;;4.30;92.20;;;;;;5021713;28;20087;-68
2023/01/19 09:31:57;;;;;;;6.40;2.83;;;4.30;92.20;;;;;;5018049;28;20112;-67
2023/01/19 09:34:24;;;;;;;7.65;2.92;;;4.30;92.20;;;;;;5021983;28;20034;-67
2023/01/19 09:36:50;;;;;;;6.45;2.72;;;4.30;92.20;;;;;;5017983;28;20029;-66
2023/01/19 09:39:16;;;;;;;6.07;2.97;;;4.40;92.20;;;;;;5022107;28;20064;-66
2023/01/19 09:41:47;;;;;;;5.80;2.63;;;4.40;92.10;;;;;;5019354;28;20045;-67
2023/01/19 09:44:22;;;;;;;7.57;2.67;;;4.50;92.20;;;;;;5025467;28;20029;-67
2023/01/19 09:46:48;;;;;;;2.70;2.00;;;4.40;92.10;;;;;;5020901;28;20025;-67
2023/01/19 09:49:29;;;;;;;4.80;2.85;;;4.50;92.10;;;;;;5021513;28;20085;-67
2023/01/19 09:51:55;;;;;;;7.38;2.53;;;4.60;92.10;;;;;;5026448;28;20029;-67
2023/01/19 09:54:40;;;;;;;7.13;2.40;;;4.60;92.00;;;;;;5025944;28;20352;-67
2023/01/19 09:57:13;;;;;;;6.80;2.33;;;4.60;92.00;;;;;;5025624;28;20029;-66
2023/01/19 09:59:42;;;;;;;7.55;2.58;;;4.70;92.00;;;;;;5028079;28;20018;-67
2023/01/19 10:02:27;;;;;;;3.97;2.13;;;4.70;91.90;;;;;;5026772;28;20029;-66
2023/01/19 10:05:11;;;;;;;5.03;2.00;;;4.80;91.90;;;;;;5031658;28;20033;-68
2023/01/19 10:07:47;;;;;;;7.50;2.17;;;4.80;91.80;;;;;;5020056;28;20496;-67
2023/01/19 10:10:23;;;;;;;9.18;2.13;;;4.90;91.80;;;;;;5028688;28;20029;-67
2023/01/19 10:13:13;;;;;;;4.10;1.63;;;5.00;91.70;;;;;;5024456;28;20496;-67
2023/01/19 10:16:01;;;;;;;6.95;2.10;;;5.00;91.60;;;;;;5022810;28;20041;-67
2023/01/19 10:18:35;;;;;;;6.70;1.85;;;5.20;91.60;;;;;;5024366;28;20491;-67
2023/01/19 10:21:21;;;;;;;6.57;1.83;;;5.20;91.50;;;;;;5016426;28;20022;-67
2023/01/19 10:23:57;;;;;;;5.63;1.65;;;5.20;91.40;;;;;;5022224;28;20045;-67
2023/01/19 10:26:26;;;;;;;5.03;1.80;;;5.30;91.40;;;;;;5021521;28;20467;-67
2023/01/19 10:28:56;;;;;;;4.78;1.77;;;5.40;91.30;;;;;;5023794;28;20021;-66
2023/01/19 10:31:23;;;;;;;7.20;1.75;;;5.50;91.50;;;;;;5019428;28;20026;-67
2023/01/19 10:33:52;;;;;;;3.17;1.33;;;5.50;91.20;;;;;;5023718;28;20029;-67
2023/01/19 10:36:22;;;;;;;6.10;1.65;;;5.60;91.20;;;;;;5023984;28;20037;-67
2023/01/19 10:38:48;;;;;;;6.55;1.40;;;5.50;91.10;;;;;;5016639;28;20255;-66
2023/01/19 10:41:19;;;;;;;2.72;1.55;;;5.60;91.20;;;;;;5024065;28;20483;-65
2023/01/19 10:43:46;;;;;;;5.38;1.30;;;5.60;91.10;;;;;;5020639;28;20231;-65
2023/01/19 10:46:32;;;;;;;5.20;1.70;;;5.60;91.10;;;;;;5018445;28;20021;-65
2023/01/19 10:48:58;;;;;;;10.00;2.00;;;5.60;91.10;;;;;;5031890;28;20029;-66
2023/01/19 10:51:24;;;;;;;5.13;1.48;;;5.60;91.10;;;;;;5014711;28;20116;-66
2023/01/19 10:53:58;;;;;;;7.65;1.40;;;5.60;91.10;;;;;;5022320;28;20136;-66
2023/01/19 10:56:31;;;;;;;4.35;1.40;;;5.60;91.10;;;;;;5015805;28;20430;-67
2023/01/19 10:59:02;;;;;;;6.97;1.52;;;5.50;91.10;;;;;;5018015;28;20025;-66
2023/01/19 11:01:29;;;;;;;11.30;2.40;;;5.60;91.10;;;;;;5015421;28;20018;-66
2023/01/19 11:04:04;;;;;;;7.47;2.10;;;5.60;91.10;;;;;;5018170;28;20025;-66
2023/01/19 11:06:31;;;;;;;6.25;2.00;;;5.60;91.10;;;;;;5022797;28;20124;-65
2023/01/19 11:09:17;;;;;;;6.45;2.40;;;5.60;91.10;;;;;;5023917;28;20025;-65
2023/01/19 11:11:49;;;;;;;7.60;2.38;;;5.60;91.10;;;;;;5019995;28;20025;-66
2023/01/19 11:14:23;;;;;;;11.20;3.00;;;5.60;91.10;;;;;;5022579;28;20021;-66
2023/01/19 11:16:53;;;;;;;6.55;2.40;;;5.60;91.20;;;;;;5013964;28;20040;-65
2023/01/19 11:19:24;;;;;;;8.50;2.50;;;5.70;91.20;;;;;;5020105;28;20617;-65
2023/01/19 11:21:50;;;;;;;7.45;3.03;;;5.80;91.10;;;;;;5022772;28;20034;-64
2023/01/19 11:24:16;;;;;;;10.40;3.33;;;5.90;91.10;;;;;;5023514;28;20025;-66
2023/01/19 11:26:48;;;;;;;9.35;3.30;;;5.90;91.00;;;;;;5026316;28;20949;-66
2023/01/19 11:29:26;;;;;;;6.70;1.70;;;5.90;91.00;;;;;;5019937;28;20462;-64
2023/01/19 11:31:53;;;;;;;4.07;1.75;;;6.00;91.00;;;;;;5022683;28;20144;-65
2023/01/19 11:34:33;;;;;;;4.45;1.23;;;5.90;91.00;;;;;;5031579;28;20052;-65
2023/01/19 11:37:25;;;;;;;3.20;1.40;;;6.00;91.10;;;;;;5020836;28;20029;-66
2023/01/19 11:39:53;;;;;;;1.45;0.82;;;6.00;91.20;;;;;;5023332;28;20120;-65
2023/01/19 11:42:20;;;;;;;2.50;1.33;;;6.00;91.10;;;;;;5023558;28;20148;-66
2023/01/19 11:45:13;;;;;;;3.08;1.40;;;6.00;91.10;;;;;;5020949;28;20044;-66
2023/01/19 11:47:49;;;;;;;2.60;1.00;;;6.00;91.20;;;;;;5028284;28;20036;-65
2023/01/19 11:50:39;;;;;;;2.42;1.38;;;6.00;91.20;;;;;;5030029;28;20037;-65
2023/01/19 11:53:15;;;;;;;3.50;1.20;;;6.00;91.00;;;;;;5029609;28;20036;-66
2023/01/19 11:55:52;;;;;;;3.22;1.08;;;6.00;91.00;;;;;;5022585;28;21289;-64
2023/01/19 11:58:19;;;;;;;0.82;0.80;;;6.00;90.90;;;;;;5018659;28;20215;-66
2023/01/19 12:01:03;;;;;;;3.40;1.20;;;6.00;90.80;;;;;;5025855;28;20044;-66
2023/01/19 12:03:41;;;;;;;5.38;1.55;;;6.10;90.90;;;;;;5021517;28;20052;-65
2023/01/19 12:06:17;;;;;;;5.30;2.50;;;6.10;90.90;;;;;;5021214;28;20051;-65
2023/01/19 12:08:54;;;;;;;2.72;1.70;;;6.30;90.80;;;;;;5019820;28;20033;-66
2023/01/19 12:11:34;;;;;;;3.10;1.70;;;6.40;90.60;;;;;;5018267;28;20041;-66
2023/01/19 12:14:01;;;;;;;6.35;2.53;;;6.50;90.40;;;;;;5019909;28;20790;-66
2023/01/19 12:16:33;;;;;;;2.38;1.25;;;6.50;90.40;;;;;;5025276;28;20033;-67
2023/01/19 12:19:04;;;;;;;1.45;1.20;;;6.60;90.50;;;;;;5021404;28;20472;-66
2023/01/19 12:21:30;;;;;;;6.75;2.08;;;6.70;90.70;;;;;;5020373;28;20043;-65
2023/01/19 12:24:15;;;;;;;2.92;1.50;;;7.20;90.50;;;;;;5019757;28;20025;-67
2023/01/19 12:26:57;;;;;;;2.20;1.10;;;7.80;89.10;;;;;;5019598;28;21257;-65
2023/01/19 12:29:30;;;;;;;3.03;1.53;;;7.70;87.20;;;;;;5020339;28;20038;-65
2023/01/19 12:32:15;;;;;;;2.13;1.30;;;7.40;87.70;;;;;;5023080;28;20295;-67
2023/01/19 12:34:46;;;;;;;1.58;1.08;;;7.20;88.60;;;;;;5022605;28;20029;-66
2023/01/19 12:37:39;;;;;;;1.27;1.17;;;7.10;89.50;;;;;;5014726;28;20651;-65
2023/01/19 12:40:17;;;;;;;0.90;0.90;;;7.60;90.60;;;;;;5024191;28;20017;-66
2023/01/19 12:42:47;;;;;;;3.65;1.80;;;9.10;88.30;;;;;;5018014;28;20022;-66
2023/01/19 12:45:21;;;;;;;2.33;1.45;;;10.00;84.40;;;;;;5022126;28;20021;-67
2023/01/19 12:47:54;;;;;;;3.83;1.55;;;10.50;82.60;;;;;;5023884;28;20069;-67
2023/01/19 12:50:22;;;;;;;3.10;1.38;;;10.80;81.60;;;;;;5020653;28;20420;-67
2023/01/19 12:52:57;;;;;;;2.20;1.30;;;10.80;80.60;;;;;;5019199;28;20030;-65
2023/01/19 12:55:26;;;;;;;1.27;1.00;;;11.20;80.50;;;;;;5022904;28;20017;-66
2023/01/19 12:57:58;;;;;;;2.45;1.23;;;11.80;79.50;;;;;;5020393;28;20038;-66
2023/01/19 13:00:24;;;;;;;2.55;1.50;;;12.00;78.10;;;;;;5020784;28;20029;-66
2023/01/19 13:02:54;;;;;;;1.48;1.20;;;12.30;78.40;;;;;;5019643;28;20026;-68
2023/01/19 13:05:23;;;;;;;1.35;1.10;;;12.20;78.00;;;;;;5024122;28;20640;-66
2023/01/19 13:08:00;;;;;;;1.70;1.60;;;12.40;78.50;;;;;;5024941;28;20049;-66
2023/01/19 13:11:20;;;;;;;2.35;1.33;;;12.00;78.30;;;;;;5021702;28;20044;-67
2023/01/19 13:13:49;;;;;;;1.45;0.95;;;10.70;80.80;;;;;;5028909;28;20040;-66
2023/01/19 13:16:17;;;;;;;1.17;0.90;;;9.70;83.60;;;;;;5019726;28;20111;-67